sensor_id;sensor_type;location;lat;lon;timestamp;P1;durP1;ratioP1;P2;durP2;ratioP2
52564;SDS011;38460;53.106;7.004;2022-08-04T00:02:26;20.90;;;9.95;;
52564;SDS011;38460;53.106;7.004;2022-08-04T00:05:28;19.25;;;9.20;;
52564;SDS011;38460;53.106;7.004;2022-08-04T00:08:11;16.73;;;9.90;;
52564;SDS011;38460;53.106;7.004;2022-08-04T00:10:56;16.48;;;8.98;;
52564;SDS011;38460;53.106;7.004;2022-08-04T00:13:24;18.20;;;9.57;;
52564;SDS011;38460;53.106;7.004;2022-08-04T00:15:52;22.58;;;9.98;;
52564;SDS011;38460;53.106;7.004;2022-08-04T00:18:27;16.20;;;9.80;;
52564;SDS011;38460;53.106;7.004;2022-08-04T00:20:58;18.10;;;9.45;;
52564;SDS011;38460;53.106;7.004;2022-08-04T00:23:28;21.80;;;11.50;;
52564;SDS011;38460;53.106;7.004;2022-08-04T00:25:57;15.50;;;9.05;;
52564;SDS011;38460;53.106;7.004;2022-08-04T00:28:24;20.15;;;9.40;;
52564;SDS011;38460;53.106;7.004;2022-08-04T00:30:50;22.05;;;9.88;;
52564;SDS011;38460;53.106;7.004;2022-08-04T00:33:17;17.90;;;9.60;;
52564;SDS011;38460;53.106;7.004;2022-08-04T00:35:45;19.25;;;10.35;;
52564;SDS011;38460;53.106;7.004;2022-08-04T00:38:15;21.95;;;9.95;;
52564;SDS011;38460;53.106;7.004;2022-08-04T00:43:42;18.95;;;9.98;;
52564;SDS011;38460;53.106;7.004;2022-08-04T00:46:45;16.00;;;9.30;;
52564;SDS011;38460;53.106;7.004;2022-08-04T00:49:38;19.75;;;9.07;;
52564;SDS011;38460;53.106;7.004;2022-08-04T00:52:30;19.42;;;10.25;;
52564;SDS011;38460;53.106;7.004;2022-08-04T00:57:38;15.85;;;9.63;;
52564;SDS011;38460;53.106;7.004;2022-08-04T01:00:26;17.73;;;8.98;;
52564;SDS011;38460;53.106;7.004;2022-08-04T01:30:07;17.77;;;10.20;;
52564;SDS011;38460;53.106;7.004;2022-08-04T01:32:35;16.85;;;9.38;;
52564;SDS011;38460;53.106;7.004;2022-08-04T01:35:04;19.08;;;10.05;;
52564;SDS011;38460;53.106;7.004;2022-08-04T01:37:41;21.73;;;11.35;;
52564;SDS011;38460;53.106;7.004;2022-08-04T01:40:16;16.98;;;9.93;;
52564;SDS011;38460;53.106;7.004;2022-08-04T01:42:43;22.98;;;11.60;;
52564;SDS011;38460;53.106;7.004;2022-08-04T01:45:12;16.67;;;10.43;;
52564;SDS011;38460;53.106;7.004;2022-08-04T01:47:42;20.50;;;11.05;;
52564;SDS011;38460;53.106;7.004;2022-08-04T01:50:13;20.45;;;12.00;;
52564;SDS011;38460;53.106;7.004;2022-08-04T01:52:40;18.17;;;11.43;;
52564;SDS011;38460;53.106;7.004;2022-08-04T01:55:08;17.42;;;10.00;;
52564;SDS011;38460;53.106;7.004;2022-08-04T01:57:45;18.95;;;8.25;;
52564;SDS011;38460;53.106;7.004;2022-08-04T02:00:11;19.73;;;10.85;;
52564;SDS011;38460;53.106;7.004;2022-08-04T02:02:39;19.95;;;11.50;;
52564;SDS011;38460;53.106;7.004;2022-08-04T02:05:05;28.70;;;16.50;;
52564;SDS011;38460;53.106;7.004;2022-08-04T02:10:22;20.27;;;15.23;;
52564;SDS011;38460;53.106;7.004;2022-08-04T02:21:45;14.40;;;9.15;;
52564;SDS011;38460;53.106;7.004;2022-08-04T02:24:15;17.85;;;10.20;;
52564;SDS011;38460;53.106;7.004;2022-08-04T02:26:46;15.13;;;9.63;;
52564;SDS011;38460;53.106;7.004;2022-08-04T02:29:24;18.65;;;9.80;;
52564;SDS011;38460;53.106;7.004;2022-08-04T02:32:05;14.88;;;8.80;;
52564;SDS011;38460;53.106;7.004;2022-08-04T02:37:08;15.75;;;9.55;;
52564;SDS011;38460;53.106;7.004;2022-08-04T02:39:35;23.92;;;10.07;;
52564;SDS011;38460;53.106;7.004;2022-08-04T02:42:02;17.35;;;9.70;;
52564;SDS011;38460;53.106;7.004;2022-08-04T02:44:29;18.30;;;10.50;;
52564;SDS011;38460;53.106;7.004;2022-08-04T02:46:56;17.20;;;9.45;;
52564;SDS011;38460;53.106;7.004;2022-08-04T02:49:24;17.88;;;9.02;;
52564;SDS011;38460;53.106;7.004;2022-08-04T02:51:54;17.27;;;9.55;;
52564;SDS011;38460;53.106;7.004;2022-08-04T02:54:26;18.50;;;9.82;;
52564;SDS011;38460;53.106;7.004;2022-08-04T02:56:56;16.60;;;9.50;;
52564;SDS011;38460;53.106;7.004;2022-08-04T02:59:27;17.17;;;9.13;;
52564;SDS011;38460;53.106;7.004;2022-08-04T03:01:55;20.40;;;10.30;;
52564;SDS011;38460;53.106;7.004;2022-08-04T03:10:37;15.23;;;8.65;;
52564;SDS011;38460;53.106;7.004;2022-08-04T03:35:15;14.38;;;8.23;;
52564;SDS011;38460;53.106;7.004;2022-08-04T03:38:06;15.20;;;9.00;;
52564;SDS011;38460;53.106;7.004;2022-08-04T03:41:05;14.55;;;7.85;;
52564;SDS011;38460;53.106;7.004;2022-08-04T04:00:08;11.98;;;8.60;;
52564;SDS011;38460;53.106;7.004;2022-08-04T04:25:14;17.67;;;9.88;;
52564;SDS011;38460;53.106;7.004;2022-08-04T04:36:34;20.27;;;10.35;;
52564;SDS011;38460;53.106;7.004;2022-08-04T04:39:34;17.05;;;9.27;;
52564;SDS011;38460;53.106;7.004;2022-08-04T04:45:00;15.98;;;8.70;;
52564;SDS011;38460;53.106;7.004;2022-08-04T04:47:50;13.52;;;8.70;;
52564;SDS011;38460;53.106;7.004;2022-08-04T04:55:55;16.45;;;10.73;;
52564;SDS011;38460;53.106;7.004;2022-08-04T04:58:27;21.75;;;10.35;;
52564;SDS011;38460;53.106;7.004;2022-08-04T05:15:26;15.43;;;9.73;;
52564;SDS011;38460;53.106;7.004;2022-08-04T05:17:56;18.48;;;10.82;;
52564;SDS011;38460;53.106;7.004;2022-08-04T05:20:25;16.33;;;9.38;;
52564;SDS011;38460;53.106;7.004;2022-08-04T05:22:59;16.13;;;9.18;;
52564;SDS011;38460;53.106;7.004;2022-08-04T05:25:40;16.70;;;10.57;;
52564;SDS011;38460;53.106;7.004;2022-08-04T05:31:10;20.23;;;9.30;;
52564;SDS011;38460;53.106;7.004;2022-08-04T05:33:46;13.07;;;8.48;;
52564;SDS011;38460;53.106;7.004;2022-08-04T05:36:16;16.98;;;10.15;;
52564;SDS011;38460;53.106;7.004;2022-08-04T05:38:44;15.35;;;8.98;;
52564;SDS011;38460;53.106;7.004;2022-08-04T05:41:18;16.75;;;9.50;;
52564;SDS011;38460;53.106;7.004;2022-08-04T05:43:45;20.33;;;9.77;;
52564;SDS011;38460;53.106;7.004;2022-08-04T05:46:12;16.92;;;9.00;;
52564;SDS011;38460;53.106;7.004;2022-08-04T05:48:40;13.45;;;7.78;;
52564;SDS011;38460;53.106;7.004;2022-08-04T05:51:09;16.90;;;9.32;;
52564;SDS011;38460;53.106;7.004;2022-08-04T05:53:36;16.95;;;9.15;;
52564;SDS011;38460;53.106;7.004;2022-08-04T05:56:03;14.55;;;8.85;;
52564;SDS011;38460;53.106;7.004;2022-08-04T05:58:30;14.52;;;8.98;;
52564;SDS011;38460;53.106;7.004;2022-08-04T06:00:58;18.48;;;8.27;;
52564;SDS011;38460;53.106;7.004;2022-08-04T06:03:26;17.85;;;9.48;;
52564;SDS011;38460;53.106;7.004;2022-08-04T06:05:54;14.65;;;8.70;;
52564;SDS011;38460;53.106;7.004;2022-08-04T06:08:21;14.93;;;7.53;;
52564;SDS011;38460;53.106;7.004;2022-08-04T06:10:48;16.15;;;7.82;;
52564;SDS011;38460;53.106;7.004;2022-08-04T06:13:17;19.38;;;8.15;;
52564;SDS011;38460;53.106;7.004;2022-08-04T06:15:50;14.63;;;8.93;;
52564;SDS011;38460;53.106;7.004;2022-08-04T06:18:18;13.65;;;7.53;;
52564;SDS011;38460;53.106;7.004;2022-08-04T06:20:44;13.80;;;7.22;;
52564;SDS011;38460;53.106;7.004;2022-08-04T06:23:14;14.75;;;7.03;;
52564;SDS011;38460;53.106;7.004;2022-08-04T06:25:42;13.48;;;7.85;;
52564;SDS011;38460;53.106;7.004;2022-08-04T06:28:15;12.32;;;7.35;;
52564;SDS011;38460;53.106;7.004;2022-08-04T06:30:42;16.30;;;8.32;;
52564;SDS011;38460;53.106;7.004;2022-08-04T06:33:14;13.13;;;7.45;;
52564;SDS011;38460;53.106;7.004;2022-08-04T06:35:54;16.85;;;7.47;;
52564;SDS011;38460;53.106;7.004;2022-08-04T06:38:22;13.82;;;7.57;;
52564;SDS011;38460;53.106;7.004;2022-08-04T06:40:50;18.20;;;7.75;;
52564;SDS011;38460;53.106;7.004;2022-08-04T06:43:17;13.07;;;7.90;;
52564;SDS011;38460;53.106;7.004;2022-08-04T06:45:43;13.68;;;8.20;;
52564;SDS011;38460;53.106;7.004;2022-08-04T06:48:11;13.80;;;8.10;;
52564;SDS011;38460;53.106;7.004;2022-08-04T06:50:39;14.85;;;8.82;;
52564;SDS011;38460;53.106;7.004;2022-08-04T06:53:07;19.10;;;9.80;;
52564;SDS011;38460;53.106;7.004;2022-08-04T06:55:33;14.65;;;9.55;;
52564;SDS011;38460;53.106;7.004;2022-08-04T06:58:00;16.88;;;9.23;;
52564;SDS011;38460;53.106;7.004;2022-08-04T07:00:26;18.90;;;9.73;;
52564;SDS011;38460;53.106;7.004;2022-08-04T07:02:53;16.90;;;9.02;;
52564;SDS011;38460;53.106;7.004;2022-08-04T07:05:19;13.95;;;7.88;;
52564;SDS011;38460;53.106;7.004;2022-08-04T07:07:46;14.38;;;8.77;;
52564;SDS011;38460;53.106;7.004;2022-08-04T07:10:13;21.30;;;8.57;;
52564;SDS011;38460;53.106;7.004;2022-08-04T07:12:40;16.02;;;8.00;;
52564;SDS011;38460;53.106;7.004;2022-08-04T07:15:07;15.90;;;7.95;;
52564;SDS011;38460;53.106;7.004;2022-08-04T07:17:35;14.90;;;7.90;;
52564;SDS011;38460;53.106;7.004;2022-08-04T07:20:02;13.43;;;7.40;;
52564;SDS011;38460;53.106;7.004;2022-08-04T07:22:29;13.82;;;6.43;;
52564;SDS011;38460;53.106;7.004;2022-08-04T07:24:55;13.60;;;7.00;;
52564;SDS011;38460;53.106;7.004;2022-08-04T07:27:23;12.75;;;7.50;;
52564;SDS011;38460;53.106;7.004;2022-08-04T07:29:50;12.10;;;6.93;;
52564;SDS011;38460;53.106;7.004;2022-08-04T07:32:20;11.45;;;6.50;;
52564;SDS011;38460;53.106;7.004;2022-08-04T07:34:47;17.23;;;6.97;;
52564;SDS011;38460;53.106;7.004;2022-08-04T07:37:14;9.48;;;5.45;;
52564;SDS011;38460;53.106;7.004;2022-08-04T07:39:40;11.88;;;6.00;;
52564;SDS011;38460;53.106;7.004;2022-08-04T07:42:06;10.70;;;5.60;;
52564;SDS011;38460;53.106;7.004;2022-08-04T07:44:33;11.13;;;5.28;;
52564;SDS011;38460;53.106;7.004;2022-08-04T07:47:00;13.02;;;5.68;;
52564;SDS011;38460;53.106;7.004;2022-08-04T07:49:28;11.48;;;5.32;;
52564;SDS011;38460;53.106;7.004;2022-08-04T07:51:54;9.63;;;5.20;;
52564;SDS011;38460;53.106;7.004;2022-08-04T07:54:20;10.63;;;5.05;;
52564;SDS011;38460;53.106;7.004;2022-08-04T07:56:46;13.90;;;5.13;;
52564;SDS011;38460;53.106;7.004;2022-08-04T07:59:14;11.95;;;5.00;;
52564;SDS011;38460;53.106;7.004;2022-08-04T08:01:40;13.25;;;5.00;;
52564;SDS011;38460;53.106;7.004;2022-08-04T08:04:06;8.38;;;4.50;;
52564;SDS011;38460;53.106;7.004;2022-08-04T08:06:35;10.00;;;4.90;;
52564;SDS011;38460;53.106;7.004;2022-08-04T08:11:36;12.63;;;5.70;;
52564;SDS011;38460;53.106;7.004;2022-08-04T08:14:02;9.82;;;4.53;;
52564;SDS011;38460;53.106;7.004;2022-08-04T08:16:28;9.18;;;4.40;;
52564;SDS011;38460;53.106;7.004;2022-08-04T08:18:55;17.08;;;4.57;;
52564;SDS011;38460;53.106;7.004;2022-08-04T08:21:21;12.82;;;4.82;;
52564;SDS011;38460;53.106;7.004;2022-08-04T08:23:47;10.75;;;4.60;;
52564;SDS011;38460;53.106;7.004;2022-08-04T08:26:14;8.20;;;4.68;;
52564;SDS011;38460;53.106;7.004;2022-08-04T08:28:40;7.70;;;4.13;;
52564;SDS011;38460;53.106;7.004;2022-08-04T08:31:06;10.93;;;4.63;;
52564;SDS011;38460;53.106;7.004;2022-08-04T08:33:32;9.27;;;4.32;;
52564;SDS011;38460;53.106;7.004;2022-08-04T08:36:03;9.25;;;4.05;;
52564;SDS011;38460;53.106;7.004;2022-08-04T08:38:54;7.63;;;4.22;;
52564;SDS011;38460;53.106;7.004;2022-08-04T08:41:50;11.02;;;4.20;;
52564;SDS011;38460;53.106;7.004;2022-08-04T08:53:17;9.50;;;3.15;;
52564;SDS011;38460;53.106;7.004;2022-08-04T09:13:07;9.65;;;3.90;;
52564;SDS011;38460;53.106;7.004;2022-08-04T09:15:56;9.23;;;3.67;;
52564;SDS011;38460;53.106;7.004;2022-08-04T09:18:36;10.00;;;4.10;;
52564;SDS011;38460;53.106;7.004;2022-08-04T09:21:16;6.82;;;3.33;;
52564;SDS011;38460;53.106;7.004;2022-08-04T09:26:54;8.40;;;3.25;;
52564;SDS011;38460;53.106;7.004;2022-08-04T09:37:23;8.48;;;3.45;;
52564;SDS011;38460;53.106;7.004;2022-08-04T09:43:10;9.15;;;3.00;;
52564;SDS011;38460;53.106;7.004;2022-08-04T09:54:22;7.37;;;2.63;;
52564;SDS011;38460;53.106;7.004;2022-08-04T10:02:34;6.90;;;2.65;;
52564;SDS011;38460;53.106;7.004;2022-08-04T10:05:03;5.35;;;2.65;;
52564;SDS011;38460;53.106;7.004;2022-08-04T10:10:58;7.13;;;3.60;;
52564;SDS011;38460;53.106;7.004;2022-08-04T10:14:09;4.88;;;2.65;;
52564;SDS011;38460;53.106;7.004;2022-08-04T10:16:34;7.80;;;2.80;;
52564;SDS011;38460;53.106;7.004;2022-08-04T10:19:27;6.20;;;3.17;;
52564;SDS011;38460;53.106;7.004;2022-08-04T10:24:46;5.05;;;2.55;;
52564;SDS011;38460;53.106;7.004;2022-08-04T10:27:21;5.95;;;3.03;;
52564;SDS011;38460;53.106;7.004;2022-08-04T10:29:57;7.43;;;2.75;;
52564;SDS011;38460;53.106;7.004;2022-08-04T10:32:34;7.57;;;3.03;;
52564;SDS011;38460;53.106;7.004;2022-08-04T10:35:20;5.65;;;2.78;;
52564;SDS011;38460;53.106;7.004;2022-08-04T10:46:04;5.93;;;3.50;;
52564;SDS011;38460;53.106;7.004;2022-08-04T10:48:35;8.15;;;3.33;;
52564;SDS011;38460;53.106;7.004;2022-08-04T10:51:05;8.75;;;3.85;;
52564;SDS011;38460;53.106;7.004;2022-08-04T10:53:44;8.32;;;4.05;;
52564;SDS011;38460;53.106;7.004;2022-08-04T10:56:25;8.35;;;3.63;;
52564;SDS011;38460;53.106;7.004;2022-08-04T10:58:59;7.82;;;3.55;;
52564;SDS011;38460;53.106;7.004;2022-08-04T11:01:38;9.77;;;4.13;;
52564;SDS011;38460;53.106;7.004;2022-08-04T11:06:55;5.15;;;3.10;;
52564;SDS011;38460;53.106;7.004;2022-08-04T11:09:24;11.57;;;3.70;;
52564;SDS011;38460;53.106;7.004;2022-08-04T11:11:55;9.48;;;4.22;;
52564;SDS011;38460;53.106;7.004;2022-08-04T11:14:49;8.07;;;3.70;;
52564;SDS011;38460;53.106;7.004;2022-08-04T11:17:46;10.95;;;3.80;;
52564;SDS011;38460;53.106;7.004;2022-08-04T11:20:37;9.00;;;4.22;;
52564;SDS011;38460;53.106;7.004;2022-08-04T11:23:08;10.05;;;4.35;;
52564;SDS011;38460;53.106;7.004;2022-08-04T11:28:45;6.68;;;3.83;;
52564;SDS011;38460;53.106;7.004;2022-08-04T11:31:21;10.40;;;3.85;;
52564;SDS011;38460;53.106;7.004;2022-08-04T11:34:09;6.60;;;3.60;;
52564;SDS011;38460;53.106;7.004;2022-08-04T11:42:22;9.38;;;3.80;;
52564;SDS011;38460;53.106;7.004;2022-08-04T11:44:59;6.03;;;3.00;;
52564;SDS011;38460;53.106;7.004;2022-08-04T11:47:32;5.78;;;3.38;;
52564;SDS011;38460;53.106;7.004;2022-08-04T11:52:33;7.32;;;3.10;;
52564;SDS011;38460;53.106;7.004;2022-08-04T11:55:02;5.78;;;2.95;;
52564;SDS011;38460;53.106;7.004;2022-08-04T11:57:31;5.38;;;2.72;;
52564;SDS011;38460;53.106;7.004;2022-08-04T11:59:57;6.38;;;2.80;;
52564;SDS011;38460;53.106;7.004;2022-08-04T12:02:30;3.67;;;2.05;;
52564;SDS011;38460;53.106;7.004;2022-08-04T12:05:10;6.18;;;2.45;;
52564;SDS011;38460;53.106;7.004;2022-08-04T12:07:38;6.25;;;2.80;;
52564;SDS011;38460;53.106;7.004;2022-08-04T12:16:21;4.82;;;2.17;;
52564;SDS011;38460;53.106;7.004;2022-08-04T12:18:54;7.22;;;2.75;;
52564;SDS011;38460;53.106;7.004;2022-08-04T12:24:19;8.00;;;2.40;;
52564;SDS011;38460;53.106;7.004;2022-08-04T12:26:51;6.97;;;2.17;;
52564;SDS011;38460;53.106;7.004;2022-08-04T12:29:18;5.82;;;1.98;;
52564;SDS011;38460;53.106;7.004;2022-08-04T12:31:54;5.72;;;2.20;;
52564;SDS011;38460;53.106;7.004;2022-08-04T12:39:45;5.15;;;2.25;;
52564;SDS011;38460;53.106;7.004;2022-08-04T12:42:16;6.80;;;2.22;;
52564;SDS011;38460;53.106;7.004;2022-08-04T12:44:43;8.02;;;2.70;;
52564;SDS011;38460;53.106;7.004;2022-08-04T12:47:13;7.93;;;3.00;;
52564;SDS011;38460;53.106;7.004;2022-08-04T12:49:42;6.45;;;2.38;;
52564;SDS011;38460;53.106;7.004;2022-08-04T12:52:11;5.83;;;2.40;;
52564;SDS011;38460;53.106;7.004;2022-08-04T12:54:40;5.85;;;2.72;;
52564;SDS011;38460;53.106;7.004;2022-08-04T12:57:10;6.05;;;2.40;;
52564;SDS011;38460;53.106;7.004;2022-08-04T12:59:44;7.30;;;2.70;;
52564;SDS011;38460;53.106;7.004;2022-08-04T13:02:23;8.15;;;2.30;;
52564;SDS011;38460;53.106;7.004;2022-08-04T13:04:54;8.60;;;2.83;;
52564;SDS011;38460;53.106;7.004;2022-08-04T13:07:24;8.55;;;2.70;;
52564;SDS011;38460;53.106;7.004;2022-08-04T13:09:52;7.03;;;2.28;;
52564;SDS011;38460;53.106;7.004;2022-08-04T13:12:27;5.93;;;2.60;;
52564;SDS011;38460;53.106;7.004;2022-08-04T13:14:58;6.72;;;2.00;;
52564;SDS011;38460;53.106;7.004;2022-08-04T13:17:48;5.88;;;2.13;;
52564;SDS011;38460;53.106;7.004;2022-08-04T13:20:23;6.40;;;2.20;;
52564;SDS011;38460;53.106;7.004;2022-08-04T13:23:03;7.97;;;2.30;;
52564;SDS011;38460;53.106;7.004;2022-08-04T13:25:34;5.78;;;1.95;;
52564;SDS011;38460;53.106;7.004;2022-08-04T13:28:04;4.30;;;1.60;;
52564;SDS011;38460;53.106;7.004;2022-08-04T13:30:37;5.22;;;2.25;;
52564;SDS011;38460;53.106;7.004;2022-08-04T13:33:03;6.65;;;2.13;;
52564;SDS011;38460;53.106;7.004;2022-08-04T13:35:31;4.82;;;2.00;;
52564;SDS011;38460;53.106;7.004;2022-08-04T13:37:58;5.07;;;2.03;;
52564;SDS011;38460;53.106;7.004;2022-08-04T13:40:25;7.72;;;2.05;;
52564;SDS011;38460;53.106;7.004;2022-08-04T13:42:53;6.13;;;2.42;;
52564;SDS011;38460;53.106;7.004;2022-08-04T13:45:21;5.68;;;2.22;;
52564;SDS011;38460;53.106;7.004;2022-08-04T13:47:49;5.68;;;1.90;;
52564;SDS011;38460;53.106;7.004;2022-08-04T13:50:24;5.50;;;1.83;;
52564;SDS011;38460;53.106;7.004;2022-08-04T13:52:54;3.95;;;1.63;;
52564;SDS011;38460;53.106;7.004;2022-08-04T13:58:20;6.28;;;1.92;;
52564;SDS011;38460;53.106;7.004;2022-08-04T14:00:47;5.80;;;2.15;;
52564;SDS011;38460;53.106;7.004;2022-08-04T14:03:25;3.95;;;1.70;;
52564;SDS011;38460;53.106;7.004;2022-08-04T14:06:04;6.60;;;2.08;;
52564;SDS011;38460;53.106;7.004;2022-08-04T14:08:35;3.67;;;1.63;;
52564;SDS011;38460;53.106;7.004;2022-08-04T14:11:33;3.90;;;1.50;;
52564;SDS011;38460;53.106;7.004;2022-08-04T14:24:58;4.22;;;1.40;;
52564;SDS011;38460;53.106;7.004;2022-08-04T14:30:22;4.47;;;1.83;;
52564;SDS011;38460;53.106;7.004;2022-08-04T14:35:30;3.67;;;1.45;;
52564;SDS011;38460;53.106;7.004;2022-08-04T14:37:58;5.22;;;1.50;;
52564;SDS011;38460;53.106;7.004;2022-08-04T14:40:30;3.75;;;1.67;;
52564;SDS011;38460;53.106;7.004;2022-08-04T14:42:57;5.25;;;1.55;;
52564;SDS011;38460;53.106;7.004;2022-08-04T14:45:28;3.17;;;1.27;;
52564;SDS011;38460;53.106;7.004;2022-08-04T14:47:56;3.40;;;1.52;;
52564;SDS011;38460;53.106;7.004;2022-08-04T14:53:18;2.75;;;1.40;;
52564;SDS011;38460;53.106;7.004;2022-08-04T14:55:46;3.65;;;1.38;;
52564;SDS011;38460;53.106;7.004;2022-08-04T14:58:17;4.50;;;1.40;;
52564;SDS011;38460;53.106;7.004;2022-08-04T15:00:43;2.28;;;1.23;;
52564;SDS011;38460;53.106;7.004;2022-08-04T15:03:09;3.33;;;1.40;;
52564;SDS011;38460;53.106;7.004;2022-08-04T15:05:35;8.98;;;8.27;;
52564;SDS011;38460;53.106;7.004;2022-08-04T15:08:03;3.70;;;1.75;;
52564;SDS011;38460;53.106;7.004;2022-08-04T15:10:30;4.15;;;1.50;;
52564;SDS011;38460;53.106;7.004;2022-08-04T15:12:56;3.55;;;1.35;;
52564;SDS011;38460;53.106;7.004;2022-08-04T15:15:22;4.68;;;1.52;;
52564;SDS011;38460;53.106;7.004;2022-08-04T15:17:50;3.70;;;1.40;;
52564;SDS011;38460;53.106;7.004;2022-08-04T15:20:19;3.22;;;1.35;;
52564;SDS011;38460;53.106;7.004;2022-08-04T15:22:46;5.90;;;2.05;;
52564;SDS011;38460;53.106;7.004;2022-08-04T15:25:12;6.78;;;2.50;;
52564;SDS011;38460;53.106;7.004;2022-08-04T15:27:39;7.20;;;2.58;;
52564;SDS011;38460;53.106;7.004;2022-08-04T15:30:11;6.32;;;2.58;;
52564;SDS011;38460;53.106;7.004;2022-08-04T15:32:52;7.07;;;2.67;;
52564;SDS011;38460;53.106;7.004;2022-08-04T15:35:24;4.88;;;2.45;;
52564;SDS011;38460;53.106;7.004;2022-08-04T15:46:21;7.05;;;3.20;;
52564;SDS011;38460;53.106;7.004;2022-08-04T15:49:19;4.72;;;2.25;;
52564;SDS011;38460;53.106;7.004;2022-08-04T15:51:57;3.95;;;1.92;;
52564;SDS011;38460;53.106;7.004;2022-08-04T15:54:31;4.25;;;1.80;;
52564;SDS011;38460;53.106;7.004;2022-08-04T15:57:00;5.60;;;1.98;;
52564;SDS011;38460;53.106;7.004;2022-08-04T16:12:58;5.47;;;1.95;;
52564;SDS011;38460;53.106;7.004;2022-08-04T16:15:39;6.05;;;1.98;;
52564;SDS011;38460;53.106;7.004;2022-08-04T16:18:07;3.72;;;2.05;;
52564;SDS011;38460;53.106;7.004;2022-08-04T16:20:35;6.07;;;1.85;;
52564;SDS011;38460;53.106;7.004;2022-08-04T16:25:45;2.38;;;1.40;;
52564;SDS011;38460;53.106;7.004;2022-08-04T16:31:07;7.10;;;2.08;;
52564;SDS011;38460;53.106;7.004;2022-08-04T16:33:34;4.38;;;2.03;;
52564;SDS011;38460;53.106;7.004;2022-08-04T16:36:01;5.22;;;1.98;;
52564;SDS011;38460;53.106;7.004;2022-08-04T16:38:27;3.45;;;1.67;;
52564;SDS011;38460;53.106;7.004;2022-08-04T16:40:54;5.80;;;1.67;;
52564;SDS011;38460;53.106;7.004;2022-08-04T16:43:21;4.15;;;1.80;;
52564;SDS011;38460;53.106;7.004;2022-08-04T16:45:52;3.53;;;2.33;;
52564;SDS011;38460;53.106;7.004;2022-08-04T16:50:46;4.53;;;2.15;;
52564;SDS011;38460;53.106;7.004;2022-08-04T16:53:13;3.65;;;2.05;;
52564;SDS011;38460;53.106;7.004;2022-08-04T16:55:46;6.97;;;2.78;;
52564;SDS011;38460;53.106;7.004;2022-08-04T16:58:14;7.30;;;2.60;;
52564;SDS011;38460;53.106;7.004;2022-08-04T17:00:41;7.75;;;2.90;;
52564;SDS011;38460;53.106;7.004;2022-08-04T17:03:10;7.07;;;2.72;;
52564;SDS011;38460;53.106;7.004;2022-08-04T17:05:36;6.88;;;3.00;;
52564;SDS011;38460;53.106;7.004;2022-08-04T17:08:02;6.32;;;3.15;;
52564;SDS011;38460;53.106;7.004;2022-08-04T17:10:32;4.57;;;3.00;;
52564;SDS011;38460;53.106;7.004;2022-08-04T17:15:48;3.65;;;2.47;;
52564;SDS011;38460;53.106;7.004;2022-08-04T17:18:16;5.97;;;2.88;;
52564;SDS011;38460;53.106;7.004;2022-08-04T17:20:43;4.40;;;2.47;;
52564;SDS011;38460;53.106;7.004;2022-08-04T17:25:51;5.70;;;2.22;;
52564;SDS011;38460;53.106;7.004;2022-08-04T17:30:55;6.10;;;2.53;;
52564;SDS011;38460;53.106;7.004;2022-08-04T17:33:22;5.68;;;2.50;;
52564;SDS011;38460;53.106;7.004;2022-08-04T17:35:50;4.22;;;2.42;;
52564;SDS011;38460;53.106;7.004;2022-08-04T17:38:17;6.57;;;3.00;;
52564;SDS011;38460;53.106;7.004;2022-08-04T17:40:50;6.63;;;2.97;;
52564;SDS011;38460;53.106;7.004;2022-08-04T17:43:17;4.85;;;2.33;;
52564;SDS011;38460;53.106;7.004;2022-08-04T17:45:42;3.92;;;2.50;;
52564;SDS011;38460;53.106;7.004;2022-08-04T17:48:16;4.57;;;2.47;;
52564;SDS011;38460;53.106;7.004;2022-08-04T17:50:43;6.03;;;2.65;;
52564;SDS011;38460;53.106;7.004;2022-08-04T17:53:09;6.78;;;2.10;;
52564;SDS011;38460;53.106;7.004;2022-08-04T17:55:45;7.28;;;2.35;;
52564;SDS011;38460;53.106;7.004;2022-08-04T17:58:18;6.15;;;2.67;;
52564;SDS011;38460;53.106;7.004;2022-08-04T18:00:47;5.78;;;2.13;;
52564;SDS011;38460;53.106;7.004;2022-08-04T18:03:26;10.52;;;2.22;;
52564;SDS011;38460;53.106;7.004;2022-08-04T18:05:52;6.25;;;2.60;;
52564;SDS011;38460;53.106;7.004;2022-08-04T18:08:22;4.82;;;2.38;;
52564;SDS011;38460;53.106;7.004;2022-08-04T18:10:50;7.07;;;2.42;;
52564;SDS011;38460;53.106;7.004;2022-08-04T18:13:16;5.90;;;2.58;;
52564;SDS011;38460;53.106;7.004;2022-08-04T18:15:41;5.68;;;2.65;;
52564;SDS011;38460;53.106;7.004;2022-08-04T18:18:17;4.50;;;2.05;;
52564;SDS011;38460;53.106;7.004;2022-08-04T18:20:44;5.03;;;2.08;;
52564;SDS011;38460;53.106;7.004;2022-08-04T18:23:11;6.28;;;2.60;;
52564;SDS011;38460;53.106;7.004;2022-08-04T18:25:37;6.18;;;2.05;;
52564;SDS011;38460;53.106;7.004;2022-08-04T18:28:04;5.20;;;2.40;;
52564;SDS011;38460;53.106;7.004;2022-08-04T18:30:34;4.20;;;1.70;;
52564;SDS011;38460;53.106;7.004;2022-08-04T18:33:01;6.32;;;2.40;;
52564;SDS011;38460;53.106;7.004;2022-08-04T18:35:28;3.40;;;1.92;;
52564;SDS011;38460;53.106;7.004;2022-08-04T18:37:54;5.20;;;2.05;;
52564;SDS011;38460;53.106;7.004;2022-08-04T18:40:20;5.32;;;1.92;;
52564;SDS011;38460;53.106;7.004;2022-08-04T18:42:46;4.05;;;2.13;;
52564;SDS011;38460;53.106;7.004;2022-08-04T18:45:12;3.28;;;2.10;;
52564;SDS011;38460;53.106;7.004;2022-08-04T18:47:39;5.50;;;2.20;;
52564;SDS011;38460;53.106;7.004;2022-08-04T18:50:05;5.00;;;1.98;;
52564;SDS011;38460;53.106;7.004;2022-08-04T18:52:31;4.03;;;1.90;;
52564;SDS011;38460;53.106;7.004;2022-08-04T18:54:57;4.22;;;1.73;;
52564;SDS011;38460;53.106;7.004;2022-08-04T18:57:23;4.85;;;1.77;;
52564;SDS011;38460;53.106;7.004;2022-08-04T18:59:52;3.50;;;1.98;;
52564;SDS011;38460;53.106;7.004;2022-08-04T19:02:19;7.85;;;2.13;;
52564;SDS011;38460;53.106;7.004;2022-08-04T19:04:45;5.90;;;2.17;;
52564;SDS011;38460;53.106;7.004;2022-08-04T19:07:11;5.60;;;2.22;;
52564;SDS011;38460;53.106;7.004;2022-08-04T19:09:38;3.70;;;1.95;;
52564;SDS011;38460;53.106;7.004;2022-08-04T19:12:08;6.90;;;2.03;;
52564;SDS011;38460;53.106;7.004;2022-08-04T19:14:34;5.80;;;2.38;;
52564;SDS011;38460;53.106;7.004;2022-08-04T19:17:00;3.95;;;1.80;;
52564;SDS011;38460;53.106;7.004;2022-08-04T19:19:26;13.20;;;2.40;;
52564;SDS011;38460;53.106;7.004;2022-08-04T19:21:52;5.65;;;2.75;;
52564;SDS011;38460;53.106;7.004;2022-08-04T19:24:19;5.72;;;2.38;;
52564;SDS011;38460;53.106;7.004;2022-08-04T19:26:45;3.97;;;2.10;;
52564;SDS011;38460;53.106;7.004;2022-08-04T19:29:11;5.93;;;2.42;;
52564;SDS011;38460;53.106;7.004;2022-08-04T19:31:39;4.72;;;2.25;;
52564;SDS011;38460;53.106;7.004;2022-08-04T19:34:05;5.93;;;2.30;;
52564;SDS011;38460;53.106;7.004;2022-08-04T19:36:31;3.78;;;1.92;;
52564;SDS011;38460;53.106;7.004;2022-08-04T19:38:58;5.90;;;2.40;;
52564;SDS011;38460;53.106;7.004;2022-08-04T19:41:31;5.68;;;2.10;;
52564;SDS011;38460;53.106;7.004;2022-08-04T19:44:00;4.28;;;2.20;;
52564;SDS011;38460;53.106;7.004;2022-08-04T19:46:30;4.78;;;2.15;;
52564;SDS011;38460;53.106;7.004;2022-08-04T19:48:56;3.83;;;2.00;;
52564;SDS011;38460;53.106;7.004;2022-08-04T19:51:22;3.42;;;1.90;;
52564;SDS011;38460;53.106;7.004;2022-08-04T19:53:48;5.70;;;2.35;;
52564;SDS011;38460;53.106;7.004;2022-08-04T19:56:13;5.53;;;2.78;;
52564;SDS011;38460;53.106;7.004;2022-08-04T19:58:41;3.75;;;2.30;;
52564;SDS011;38460;53.106;7.004;2022-08-04T20:01:08;8.75;;;2.75;;
52564;SDS011;38460;53.106;7.004;2022-08-04T20:03:34;5.43;;;2.20;;
52564;SDS011;38460;53.106;7.004;2022-08-04T20:06:00;4.55;;;2.40;;
52564;SDS011;38460;53.106;7.004;2022-08-04T20:08:26;6.30;;;2.05;;
52564;SDS011;38460;53.106;7.004;2022-08-04T20:10:51;6.18;;;2.22;;
52564;SDS011;38460;53.106;7.004;2022-08-04T20:13:18;4.70;;;2.38;;